sensor_id;sensor_type;location;lat;lon;timestamp;pressure;altitude;pressure_sealevel;temperature;humidity
20077;BME280;12348;42.710;23.378;2023-02-12T00:00:20;96129.28;;;-0.65;75.57
20077;BME280;12348;42.710;23.378;2023-02-12T00:02:46;96135.38;;;-0.65;75.60
20077;BME280;12348;42.710;23.378;2023-02-12T00:05:13;96138.84;;;-0.64;74.79
20077;BME280;12348;42.710;23.378;2023-02-12T00:07:40;96135.81;;;-0.61;74.44
20077;BME280;12348;42.710;23.378;2023-02-12T00:10:08;96143.97;;;-0.56;73.31
20077;BME280;12348;42.710;23.378;2023-02-12T00:12:36;96145.84;;;-0.50;72.80
20077;BME280;12348;42.710;23.378;2023-02-12T00:15:03;96140.19;;;-0.47;72.32
20077;BME280;12348;42.710;23.378;2023-02-12T00:17:30;96139.38;;;-0.47;71.84
20077;BME280;12348;42.710;23.378;2023-02-12T00:19:57;96141.38;;;-0.50;72.03
20077;BME280;12348;42.710;23.378;2023-02-12T00:22:24;96143.03;;;-0.42;71.61
20077;BME280;12348;42.710;23.378;2023-02-12T00:24:50;96136.75;;;-0.41;72.25
20077;BME280;12348;42.710;23.378;2023-02-12T00:27:17;96147.13;;;-0.39;72.85
20077;BME280;12348;42.710;23.378;2023-02-12T00:29:46;96140.00;;;-0.39;73.42
20077;BME280;12348;42.710;23.378;2023-02-12T00:32:12;96138.97;;;-0.44;74.01
20077;BME280;12348;42.710;23.378;2023-02-12T00:34:43;96135.28;;;-0.50;74.74
20077;BME280;12348;42.710;23.378;2023-02-12T00:37:10;96131.59;;;-0.49;75.20
20077;BME280;12348;42.710;23.378;2023-02-12T00:39:37;96129.50;;;-0.60;75.78
20077;BME280;12348;42.710;23.378;2023-02-12T00:42:04;96135.34;;;-0.71;76.81
20077;BME280;12348;42.710;23.378;2023-02-12T00:44:31;96126.16;;;-0.76;77.23
20077;BME280;12348;42.710;23.378;2023-02-12T00:46:59;96123.13;;;-0.73;76.91
20077;BME280;12348;42.710;23.378;2023-02-12T00:49:27;96116.34;;;-0.88;77.58
20077;BME280;12348;42.710;23.378;2023-02-12T00:51:54;96097.63;;;-0.87;78.00
20077;BME280;12348;42.710;23.378;2023-02-12T00:54:21;96102.56;;;-0.77;77.12
20077;BME280;12348;42.710;23.378;2023-02-12T00:56:47;96103.81;;;-0.73;76.53
20077;BME280;12348;42.710;23.378;2023-02-12T00:59:14;96097.91;;;-0.75;76.40
20077;BME280;12348;42.710;23.378;2023-02-12T01:01:41;96096.09;;;-0.75;76.04
20077;BME280;12348;42.710;23.378;2023-02-12T01:04:09;96094.00;;;-0.79;76.30
20077;BME280;12348;42.710;23.378;2023-02-12T01:06:37;96097.63;;;-0.87;76.39
20077;BME280;12348;42.710;23.378;2023-02-12T01:09:04;96094.38;;;-0.82;76.27
20077;BME280;12348;42.710;23.378;2023-02-12T01:11:30;96089.09;;;-0.89;76.44
20077;BME280;12348;42.710;23.378;2023-02-12T01:13:57;96107.34;;;-0.94;76.92
20077;BME280;12348;42.710;23.378;2023-02-12T01:16:25;96106.94;;;-0.91;76.85
20077;BME280;12348;42.710;23.378;2023-02-12T01:18:53;96103.13;;;-0.88;77.12
20077;BME280;12348;42.710;23.378;2023-02-12T01:21:23;96107.22;;;-0.86;76.86
20077;BME280;12348;42.710;23.378;2023-02-12T01:23:50;96106.81;;;-0.48;76.30
20077;BME280;12348;42.710;23.378;2023-02-12T01:26:19;96099.44;;;-0.53;75.49
20077;BME280;12348;42.710;23.378;2023-02-12T01:28:50;96113.25;;;-0.57;75.71
20077;BME280;12348;42.710;23.378;2023-02-12T01:31:18;96101.25;;;-0.60;76.54
20077;BME280;12348;42.710;23.378;2023-02-12T01:33:47;96098.41;;;-0.58;76.62
20077;BME280;12348;42.710;23.378;2023-02-12T01:36:14;96097.22;;;-0.56;77.23
20077;BME280;12348;42.710;23.378;2023-02-12T01:38:42;96097.00;;;-0.54;77.15
20077;BME280;12348;42.710;23.378;2023-02-12T01:41:10;96086.63;;;-0.49;77.06
20077;BME280;12348;42.710;23.378;2023-02-12T01:43:39;96080.31;;;-0.55;77.42
20077;BME280;12348;42.710;23.378;2023-02-12T01:46:07;96081.78;;;-0.52;77.64
20077;BME280;12348;42.710;23.378;2023-02-12T01:48:37;96066.72;;;-0.45;77.34
20077;BME280;12348;42.710;23.378;2023-02-12T01:51:06;96058.78;;;-0.45;77.67
20077;BME280;12348;42.710;23.378;2023-02-12T01:53:37;96058.56;;;-0.50;77.64
20077;BME280;12348;42.710;23.378;2023-02-12T01:56:08;96063.81;;;-0.57;78.36
20077;BME280;12348;42.710;23.378;2023-02-12T01:58:38;96065.22;;;-0.61;78.63
20077;BME280;12348;42.710;23.378;2023-02-12T02:01:08;96074.00;;;-0.54;79.10
20077;BME280;12348;42.710;23.378;2023-02-12T02:03:37;96075.84;;;-0.54;78.90
20077;BME280;12348;42.710;23.378;2023-02-12T02:06:09;96071.34;;;-0.60;79.24
20077;BME280;12348;42.710;23.378;2023-02-12T02:08:37;96078.41;;;-0.67;80.00
20077;BME280;12348;42.710;23.378;2023-02-12T02:11:04;96079.63;;;-0.70;80.06
20077;BME280;12348;42.710;23.378;2023-02-12T02:13:53;96079.81;;;-0.78;80.65
20077;BME280;12348;42.710;23.378;2023-02-12T02:16:41;96077.66;;;-0.96;81.51
20077;BME280;12348;42.710;23.378;2023-02-12T02:19:17;96067.84;;;-1.02;82.33
20077;BME280;12348;42.710;23.378;2023-02-12T02:22:20;96060.97;;;-0.96;82.31
20077;BME280;12348;42.710;23.378;2023-02-12T02:25:14;96052.63;;;-1.00;82.53
20077;BME280;12348;42.710;23.378;2023-02-12T02:28:00;96060.94;;;-1.03;82.81
20077;BME280;12348;42.710;23.378;2023-02-12T02:30:44;96065.84;;;-1.00;83.00
20077;BME280;12348;42.710;23.378;2023-02-12T02:33:26;96064.44;;;-0.96;83.02
20077;BME280;12348;42.710;23.378;2023-02-12T02:36:07;96054.47;;;-1.01;83.01
20077;BME280;12348;42.710;23.378;2023-02-12T02:38:40;96060.34;;;-0.99;82.85
20077;BME280;12348;42.710;23.378;2023-02-12T02:41:14;96067.91;;;-0.95;82.71
20077;BME280;12348;42.710;23.378;2023-02-12T02:43:46;96072.16;;;-0.94;82.78
20077;BME280;12348;42.710;23.378;2023-02-12T02:46:19;96064.28;;;-0.88;82.25
20077;BME280;12348;42.710;23.378;2023-02-12T02:48:51;96077.72;;;-0.83;82.14
20077;BME280;12348;42.710;23.378;2023-02-12T02:51:20;96083.00;;;-0.83;82.20
20077;BME280;12348;42.710;23.378;2023-02-12T02:53:53;96079.81;;;-0.78;82.14
20077;BME280;12348;42.710;23.378;2023-02-12T02:56:23;96072.09;;;-0.73;82.14
20077;BME280;12348;42.710;23.378;2023-02-12T02:58:53;96080.25;;;-0.68;82.16
20077;BME280;12348;42.710;23.378;2023-02-12T03:01:26;96082.75;;;-0.60;81.29
20077;BME280;12348;42.710;23.378;2023-02-12T03:03:59;96075.75;;;-0.67;81.64
20077;BME280;12348;42.710;23.378;2023-02-12T03:06:33;96082.72;;;-0.66;81.75
20077;BME280;12348;42.710;23.378;2023-02-12T03:09:10;96083.94;;;-0.62;81.87
20077;BME280;12348;42.710;23.378;2023-02-12T03:11:39;96085.97;;;-0.64;81.89
20077;BME280;12348;42.710;23.378;2023-02-12T03:14:11;96088.81;;;-0.66;82.33
20077;BME280;12348;42.710;23.378;2023-02-12T03:16:47;96080.66;;;-0.64;82.42
20077;BME280;12348;42.710;23.378;2023-02-12T03:19:18;96078.06;;;-0.58;82.10
20077;BME280;12348;42.710;23.378;2023-02-12T03:21:48;96072.56;;;-0.56;81.66
20077;BME280;12348;42.710;23.378;2023-02-12T03:24:21;96067.28;;;-0.56;81.99
20077;BME280;12348;42.710;23.378;2023-02-12T03:26:52;96068.97;;;-0.48;81.46
20077;BME280;12348;42.710;23.378;2023-02-12T03:29:21;96062.69;;;-0.41;80.50
20077;BME280;12348;42.710;23.378;2023-02-12T03:31:57;96060.25;;;-0.36;80.37
20077;BME280;12348;42.710;23.378;2023-02-12T03:34:29;96056.19;;;-0.32;79.12
20077;BME280;12348;42.710;23.378;2023-02-12T03:37:03;96058.66;;;-0.23;78.37
20077;BME280;12348;42.710;23.378;2023-02-12T03:39:39;96058.91;;;-0.18;77.87
20077;BME280;12348;42.710;23.378;2023-02-12T03:42:14;96069.69;;;-0.13;77.35
20077;BME280;12348;42.710;23.378;2023-02-12T03:44:47;96071.53;;;-0.14;77.34
20077;BME280;12348;42.710;23.378;2023-02-12T03:47:22;96071.31;;;-0.12;77.73
20077;BME280;12348;42.710;23.378;2023-02-12T03:49:58;96069.91;;;-0.15;78.14
20077;BME280;12348;42.710;23.378;2023-02-12T03:52:27;96069.50;;;-0.18;78.60
20077;BME280;12348;42.710;23.378;2023-02-12T03:54:55;96063.16;;;-0.17;78.59
20077;BME280;12348;42.710;23.378;2023-02-12T03:57:24;96063.34;;;-0.19;78.38
20077;BME280;12348;42.710;23.378;2023-02-12T03:59:55;96059.09;;;-0.20;78.42
20077;BME280;12348;42.710;23.378;2023-02-12T04:02:24;96066.69;;;-0.04;77.95
20077;BME280;12348;42.710;23.378;2023-02-12T04:04:51;96064.03;;;0.03;77.39
20077;BME280;12348;42.710;23.378;2023-02-12T04:07:18;96062.00;;;0.05;77.42
20077;BME280;12348;42.710;23.378;2023-02-12T04:09:44;96059.75;;;0.02;77.82
20077;BME280;12348;42.710;23.378;2023-02-12T04:12:37;96051.63;;;-0.03;78.16
20077;BME280;12348;42.710;23.378;2023-02-12T04:15:15;96055.66;;;-0.14;78.42
20077;BME280;12348;42.710;23.378;2023-02-12T04:17:49;96066.41;;;-0.15;78.70
20077;BME280;12348;42.710;23.378;2023-02-12T04:20:25;96070.69;;;-0.21;79.33
20077;BME280;12348;42.710;23.378;2023-02-12T04:23:05;96067.84;;;-0.19;79.73
20077;BME280;12348;42.710;23.378;2023-02-12T04:25:43;96074.13;;;-0.27;80.79
20077;BME280;12348;42.710;23.378;2023-02-12T04:28:26;96073.88;;;-0.39;81.69
20077;BME280;12348;42.710;23.378;2023-02-12T04:30:58;96083.59;;;-0.46;82.45
20077;BME280;12348;42.710;23.378;2023-02-12T04:33:32;96082.41;;;-0.43;83.12
20077;BME280;12348;42.710;23.378;2023-02-12T04:36:04;96085.44;;;-0.46;83.52
20077;BME280;12348;42.710;23.378;2023-02-12T04:38:36;96084.03;;;-0.42;84.92
20077;BME280;12348;42.710;23.378;2023-02-12T04:41:04;96077.94;;;-0.43;85.09
20077;BME280;12348;42.710;23.378;2023-02-12T04:43:34;96083.25;;;-0.36;84.55
20077;BME280;12348;42.710;23.378;2023-02-12T04:46:02;96083.22;;;-0.43;85.14
20077;BME280;12348;42.710;23.378;2023-02-12T04:48:30;96089.75;;;-0.39;85.02
20077;BME280;12348;42.710;23.378;2023-02-12T04:50:59;96092.38;;;-0.39;85.66
20077;BME280;12348;42.710;23.378;2023-02-12T04:53:26;96094.63;;;-0.42;85.87
20077;BME280;12348;42.710;23.378;2023-02-12T04:55:53;96088.94;;;-0.39;85.95
20077;BME280;12348;42.710;23.378;2023-02-12T04:58:19;96090.94;;;-0.41;85.62
20077;BME280;12348;42.710;23.378;2023-02-12T05:00:46;96095.63;;;-0.43;85.44
20077;BME280;12348;42.710;23.378;2023-02-12T05:03:13;96088.50;;;-0.43;85.33
20077;BME280;12348;42.710;23.378;2023-02-12T05:05:41;96082.63;;;-0.38;85.20
20077;BME280;12348;42.710;23.378;2023-02-12T05:08:08;96087.31;;;-0.34;84.47
20077;BME280;12348;42.710;23.378;2023-02-12T05:10:34;96091.66;;;-0.26;85.50
20077;BME280;12348;42.710;23.378;2023-02-12T05:13:01;96091.47;;;-0.18;84.26
20077;BME280;12348;42.710;23.378;2023-02-12T05:15:28;96095.94;;;-0.12;83.77
20077;BME280;12348;42.710;23.378;2023-02-12T05:17:54;96099.19;;;-0.16;83.57
20077;BME280;12348;42.710;23.378;2023-02-12T05:20:21;96104.53;;;-0.10;82.68
20077;BME280;12348;42.710;23.378;2023-02-12T05:22:52;96100.88;;;-0.02;82.24
20077;BME280;12348;42.710;23.378;2023-02-12T05:25:18;96112.09;;;0.00;81.72
20077;BME280;12348;42.710;23.378;2023-02-12T05:27:45;96107.41;;;0.02;81.28
20077;BME280;12348;42.710;23.378;2023-02-12T05:30:12;96110.69;;;0.11;80.44
20077;BME280;12348;42.710;23.378;2023-02-12T05:32:39;96115.59;;;0.20;79.86
20077;BME280;12348;42.710;23.378;2023-02-12T05:35:07;96112.34;;;0.25;79.46
20077;BME280;12348;42.710;23.378;2023-02-12T05:37:34;96123.16;;;0.37;79.22
20077;BME280;12348;42.710;23.378;2023-02-12T05:40:03;96126.22;;;0.40;79.30
20077;BME280;12348;42.710;23.378;2023-02-12T05:42:30;96105.66;;;0.56;79.65
20077;BME280;12348;42.710;23.378;2023-02-12T05:44:56;96114.84;;;0.66;81.32
20077;BME280;12348;42.710;23.378;2023-02-12T05:47:23;96114.84;;;0.66;82.29
20077;BME280;12348;42.710;23.378;2023-02-12T05:49:50;96118.75;;;0.64;83.13
20077;BME280;12348;42.710;23.378;2023-02-12T05:52:17;96132.81;;;0.64;82.95
20077;BME280;12348;42.710;23.378;2023-02-12T05:54:44;96126.47;;;0.65;82.32
20077;BME280;12348;42.710;23.378;2023-02-12T05:57:12;96127.50;;;0.58;84.14
20077;BME280;12348;42.710;23.378;2023-02-12T05:59:39;96124.84;;;0.58;83.59
20077;BME280;12348;42.710;23.378;2023-02-12T06:02:05;96133.41;;;0.53;84.04
20077;BME280;12348;42.710;23.378;2023-02-12T06:04:32;96142.34;;;0.52;84.30
20077;BME280;12348;42.710;23.378;2023-02-12T06:06:59;96139.69;;;0.52;84.82
20077;BME280;12348;42.710;23.378;2023-02-12T06:09:26;96144.81;;;0.47;86.09
20077;BME280;12348;42.710;23.378;2023-02-12T06:11:53;96138.06;;;0.44;87.55
20077;BME280;12348;42.710;23.378;2023-02-12T06:14:21;96141.13;;;0.35;89.47
20077;BME280;12348;42.710;23.378;2023-02-12T06:16:49;96142.94;;;0.28;95.55
20077;BME280;12348;42.710;23.378;2023-02-12T06:19:18;96136.84;;;0.34;100.00
20077;BME280;12348;42.710;23.378;2023-02-12T06:21:45;96152.31;;;0.30;100.00
20077;BME280;12348;42.710;23.378;2023-02-12T06:24:15;96136.22;;;0.32;100.00
20077;BME280;12348;42.710;23.378;2023-02-12T06:26:42;96129.06;;;0.26;100.00
20077;BME280;12348;42.710;23.378;2023-02-12T06:29:09;96150.47;;;0.31;100.00
20077;BME280;12348;42.710;23.378;2023-02-12T06:31:39;96141.09;;;0.28;100.00
20077;BME280;12348;42.710;23.378;2023-02-12T06:34:07;96144.13;;;0.25;100.00
20077;BME280;12348;42.710;23.378;2023-02-12T06:36:36;96146.00;;;0.31;100.00
20077;BME280;12348;42.710;23.378;2023-02-12T06:39:03;96146.41;;;0.35;100.00
20077;BME280;12348;42.710;23.378;2023-02-12T06:41:29;96139.06;;;0.30;100.00
20077;BME280;12348;42.710;23.378;2023-02-12T06:43:57;96139.84;;;0.24;100.00
20077;BME280;12348;42.710;23.378;2023-02-12T06:46:24;96135.16;;;0.19;100.00
20077;BME280;12348;42.710;23.378;2023-02-12T06:48:55;96156.31;;;0.13;100.00
20077;BME280;12348;42.710;23.378;2023-02-12T06:51:23;96152.25;;;0.17;100.00
20077;BME280;12348;42.710;23.378;2023-02-12T06:53:52;96148.59;;;0.11;100.00
20077;BME280;12348;42.710;23.378;2023-02-12T06:56:20;96151.63;;;0.15;100.00
20077;BME280;12348;42.710;23.378;2023-02-12T06:58:52;96163.47;;;0.19;100.00
20077;BME280;12348;42.710;23.378;2023-02-12T07:01:21;96167.16;;;0.24;100.00
20077;BME280;12348;42.710;23.378;2023-02-12T07:03:49;96165.75;;;0.29;100.00
20077;BME280;12348;42.710;23.378;2023-02-12T07:06:18;96156.38;;;0.33;100.00
20077;BME280;12348;42.710;23.378;2023-02-12T07:08:46;96154.97;;;0.37;100.00
20077;BME280;12348;42.710;23.378;2023-02-12T07:11:13;96158.41;;;0.37;100.00
20077;BME280;12348;42.710;23.378;2023-02-12T07:13:40;96161.91;;;0.38;100.00
20077;BME280;12348;42.710;23.378;2023-02-12T07:16:09;96161.91;;;0.38;100.00
20077;BME280;12348;42.710;23.378;2023-02-12T07:18:36;96170.66;;;0.38;100.00
20077;BME280;12348;42.710;23.378;2023-02-12T07:21:05;96177.59;;;0.39;100.00
20077;BME280;12348;42.710;23.378;2023-02-12T07:23:33;96169.25;;;0.42;100.00
20077;BME280;12348;42.710;23.378;2023-02-12T07:26:01;96174.97;;;0.46;100.00
20077;BME280;12348;42.710;23.378;2023-02-12T07:28:29;96169.84;;;0.44;100.00
20077;BME280;12348;42.710;23.378;2023-02-12T07:30:57;96157.22;;;0.40;100.00
20077;BME280;12348;42.710;23.378;2023-02-12T07:33:24;96161.72;;;0.46;100.00
20077;BME280;12348;42.710;23.378;2023-02-12T07:35:51;96170.88;;;0.43;100.00
20077;BME280;12348;42.710;23.378;2023-02-12T07:38:18;96171.09;;;0.42;100.00
20077;BME280;12348;42.710;23.378;2023-02-12T07:40:46;96187.19;;;0.47;100.00
20077;BME280;12348;42.710;23.378;2023-02-12T07:43:13;96176.19;;;0.50;100.00
20077;BME280;12348;42.710;23.378;2023-02-12T07:45:40;96180.06;;;0.54;100.00
20077;BME280;12348;42.710;23.378;2023-02-12T07:48:07;96169.88;;;0.51;100.00
20077;BME280;12348;42.710;23.378;2023-02-12T07:50:33;96177.81;;;0.51;100.00
20077;BME280;12348;42.710;23.378;2023-02-12T07:53:00;96175.16;;;0.51;100.00
20077;BME280;12348;42.710;23.378;2023-02-12T07:55:27;96170.50;;;0.53;100.00
20077;BME280;12348;42.710;23.378;2023-02-12T07:57:55;96171.91;;;0.56;100.00
20077;BME280;12348;42.710;23.378;2023-02-12T08:00:22;96177.22;;;0.56;100.00
20077;BME280;12348;42.710;23.378;2023-02-12T08:02:52;96171.31;;;0.67;100.00
20077;BME280;12348;42.710;23.378;2023-02-12T08:05:19;96173.16;;;0.66;100.00
20077;BME280;12348;42.710;23.378;2023-02-12T08:07:45;96179.88;;;0.62;100.00
20077;BME280;12348;42.710;23.378;2023-02-12T08:10:12;96171.53;;;0.65;100.00
20077;BME280;12348;42.710;23.378;2023-02-12T08:12:39;96164.63;;;0.64;100.00
20077;BME280;12348;42.710;23.378;2023-02-12T08:15:08;96171.97;;;0.76;100.00
20077;BME280;12348;42.710;23.378;2023-02-12T08:17:35;96172.97;;;0.68;100.00
20077;BME280;12348;42.710;23.378;2023-02-12T08:20:02;96177.44;;;0.74;100.00
20077;BME280;12348;42.710;23.378;2023-02-12T08:22:29;96180.72;;;0.76;100.00
20077;BME280;12348;42.710;23.378;2023-02-12T08:24:56;96186.03;;;0.83;100.00
20077;BME280;12348;42.710;23.378;2023-02-12T08:27:23;96192.97;;;0.84;100.00
20077;BME280;12348;42.710;23.378;2023-02-12T08:29:50;96193.63;;;1.06;100.00
20077;BME280;12348;42.710;23.378;2023-02-12T08:32:18;96204.44;;;1.24;100.00
20077;BME280;12348;42.710;23.378;2023-02-12T08:34:45;96208.50;;;1.27;100.00
20077;BME280;12348;42.710;23.378;2023-02-12T08:37:12;96209.31;;;1.20;100.00
20077;BME280;12348;42.710;23.378;2023-02-12T08:39:39;96211.38;;;1.32;100.00
20077;BME280;12348;42.710;23.378;2023-02-12T08:42:06;96211.75;;;1.22;100.00
20077;BME280;12348;42.710;23.378;2023-02-12T08:44:33;96210.31;;;1.19;100.00
20077;BME280;12348;42.710;23.378;2023-02-12T08:46:59;96213.22;;;1.31;100.00
20077;BME280;12348;42.710;23.378;2023-02-12T08:49:28;96213.00;;;1.46;100.00
20077;BME280;12348;42.710;23.378;2023-02-12T08:51:56;96202.56;;;1.38;100.00
20077;BME280;12348;42.710;23.378;2023-02-12T08:54:25;96213.19;;;1.38;100.00
20077;BME280;12348;42.710;23.378;2023-02-12T08:56:54;96214.22;;;1.43;100.00
20077;BME280;12348;42.710;23.378;2023-02-12T08:59:21;96215.44;;;1.48;100.00
20077;BME280;12348;42.710;23.378;2023-02-12T09:01:49;96220.75;;;1.48;100.00
20077;BME280;12348;42.710;23.378;2023-02-12T09:04:20;96228.28;;;1.70;100.00
20077;BME280;12348;42.710;23.378;2023-02-12T09:06:48;96226.66;;;1.69;100.00
20077;BME280;12348;42.710;23.378;2023-02-12T09:09:15;96226.84;;;1.68;100.00
20077;BME280;12348;42.710;23.378;2023-02-12T09:11:44;96223.19;;;1.76;100.00
20077;BME280;12348;42.710;23.378;2023-02-12T09:14:12;96224.19;;;1.75;100.00
20077;BME280;12348;42.710;23.378;2023-02-12T09:16:40;96220.13;;;1.65;100.00
20077;BME280;12348;42.710;23.378;2023-02-12T09:19:08;96233.56;;;1.84;100.00
20077;BME280;12348;42.710;23.378;2023-02-12T09:21:36;96239.88;;;1.89;100.00
20077;BME280;12348;42.710;23.378;2023-02-12T09:24:05;96226.97;;;2.06;100.00
20077;BME280;12348;42.710;23.378;2023-02-12T09:26:33;96231.28;;;2.01;100.00
20077;BME280;12348;42.710;23.378;2023-02-12T09:29:00;96233.03;;;2.27;100.00
20077;BME280;12348;42.710;23.378;2023-02-12T09:31:29;96229.72;;;2.38;100.00
20077;BME280;12348;42.710;23.378;2023-02-12T09:33:58;96241.13;;;2.52;100.00
20077;BME280;12348;42.710;23.378;2023-02-12T09:36:25;96243.66;;;2.78;100.00
20077;BME280;12348;42.710;23.378;2023-02-12T09:38:52;96245.78;;;2.63;100.00
20077;BME280;12348;42.710;23.378;2023-02-12T09:44:28;96258.00;;;2.19;100.00
20077;BME280;12348;42.710;23.378;2023-02-12T09:47:00;96257.56;;;2.29;100.00
20077;BME280;12348;42.710;23.378;2023-02-12T09:49:53;96258.66;;;2.66;100.00
20077;BME280;12348;42.710;23.378;2023-02-12T09:52:25;96255.81;;;2.99;100.00
20077;BME280;12348;42.710;23.378;2023-02-12T09:54:52;96257.19;;;3.40;100.00
20077;BME280;12348;42.710;23.378;2023-02-12T09:57:24;96251.16;;;3.76;100.00
20077;BME280;12348;42.710;23.378;2023-02-12T09:59:57;96246.16;;;4.05;100.00
20077;BME280;12348;42.710;23.378;2023-02-12T10:02:25;96249.06;;;4.40;94.26
20077;BME280;12348;42.710;23.378;2023-02-12T10:04:52;96248.97;;;4.65;89.99
20077;BME280;12348;42.710;23.378;2023-02-12T10:07:26;96255.81;;;4.91;86.69
20077;BME280;12348;42.710;23.378;2023-02-12T10:10:18;96246.09;;;5.27;83.93
20077;BME280;12348;42.710;23.378;2023-02-12T10:12:54;96250.44;;;5.09;82.65
20077;BME280;12348;42.710;23.378;2023-02-12T10:15:36;96244.19;;;5.57;80.69
20077;BME280;12348;42.710;23.378;2023-02-12T10:18:19;96256.06;;;5.20;80.77
20077;BME280;12348;42.710;23.378;2023-02-12T10:21:08;96269.09;;;5.40;80.20
20077;BME280;12348;42.710;23.378;2023-02-12T10:23:52;96257.72;;;5.32;79.99
20077;BME280;12348;42.710;23.378;2023-02-12T10:26:25;96253.50;;;5.25;80.61
20077;BME280;12348;42.710;23.378;2023-02-12T10:28:58;96259.50;;;4.60;83.72
20077;BME280;12348;42.710;23.378;2023-02-12T10:31:33;96264.75;;;4.67;83.82
20077;BME280;12348;42.710;23.378;2023-02-12T10:34:07;96254.41;;;4.89;83.93
20077;BME280;12348;42.710;23.378;2023-02-12T10:36:41;96251.16;;;4.38;85.51
20077;BME280;12348;42.710;23.378;2023-02-12T10:39:14;96248.53;;;4.50;86.54
20077;BME280;12348;42.710;23.378;2023-02-12T10:41:48;96245.22;;;4.84;84.35
20077;BME280;12348;42.710;23.378;2023-02-12T10:44:19;96238.13;;;4.97;83.83
20077;BME280;12348;42.710;23.378;2023-02-12T10:46:46;96239.78;;;5.09;82.63
20077;BME280;12348;42.710;23.378;2023-02-12T10:49:16;96241.44;;;4.92;83.80
20077;BME280;12348;42.710;23.378;2023-02-12T10:52:02;96246.66;;;5.29;81.68
20077;BME280;12348;42.710;23.378;2023-02-12T10:54:32;96255.28;;;5.31;80.73
20077;BME280;12348;42.710;23.378;2023-02-12T10:57:05;96254.59;;;5.47;79.74
20077;BME280;12348;42.710;23.378;2023-02-12T10:59:34;96260.75;;;5.48;79.23
20077;BME280;12348;42.710;23.378;2023-02-12T11:02:01;96260.72;;;5.24;80.07
20077;BME280;12348;42.710;23.378;2023-02-12T11:04:31;96257.53;;;5.46;80.32
20077;BME280;12348;42.710;23.378;2023-02-12T11:07:00;96245.91;;;5.52;80.82
20077;BME280;12348;42.710;23.378;2023-02-12T11:09:28;96254.19;;;5.74;80.31
20077;BME280;12348;42.710;23.378;2023-02-12T11:11:56;96254.28;;;5.67;78.84
20077;BME280;12348;42.710;23.378;2023-02-12T11:14:23;96253.69;;;5.42;79.22
20077;BME280;12348;42.710;23.378;2023-02-12T11:16:53;96248.91;;;5.44;78.85
20077;BME280;12348;42.710;23.378;2023-02-12T11:19:23;96252.31;;;5.86;78.18
20077;BME280;12348;42.710;23.378;2023-02-12T11:21:50;96242.13;;;6.18;76.36
20077;BME280;12348;42.710;23.378;2023-02-12T11:24:28;96242.03;;;6.13;75.78
20077;BME280;12348;42.710;23.378;2023-02-12T11:27:28;96244.91;;;6.35;75.76
20077;BME280;12348;42.710;23.378;2023-02-12T11:30:15;96235.88;;;6.13;75.77
20077;BME280;12348;42.710;23.378;2023-02-12T11:32:43;96236.56;;;5.96;76.39
20077;BME280;12348;42.710;23.378;2023-02-12T11:35:13;96240.03;;;5.97;78.11
20077;BME280;12348;42.710;23.378;2023-02-12T11:37:44;96238.53;;;6.01;78.33
20077;BME280;12348;42.710;23.378;2023-02-12T11:40:20;96235.41;;;6.27;77.55
20077;BME280;12348;42.710;23.378;2023-02-12T11:42:50;96247.34;;;5.90;76.73
20077;BME280;12348;42.710;23.378;2023-02-12T11:45:20;96246.16;;;5.86;77.78
20077;BME280;12348;42.710;23.378;2023-02-12T11:47:49;96246.19;;;5.97;77.86
20077;BME280;12348;42.710;23.378;2023-02-12T11:50:23;96239.47;;;6.18;76.38
20077;BME280;12348;42.710;23.378;2023-02-12T11:52:54;96242.16;;;6.06;76.48
20077;BME280;12348;42.710;23.378;2023-02-12T11:55:25;96235.75;;;5.96;75.19
20077;BME280;12348;42.710;23.378;2023-02-12T11:57:54;96246.09;;;5.92;75.52
20077;BME280;12348;42.710;23.378;2023-02-12T12:00:29;96241.09;;;5.96;75.89
20077;BME280;12348;42.710;23.378;2023-02-12T12:03:03;96246.06;;;6.16;75.93
20077;BME280;12348;42.710;23.378;2023-02-12T12:05:37;96246.66;;;6.29;74.13
20077;BME280;12348;42.710;23.378;2023-02-12T12:08:12;96247.38;;;6.13;74.84
20077;BME280;12348;42.710;23.378;2023-02-12T12:10:46;96253.53;;;6.14;74.08
20077;BME280;12348;42.710;23.378;2023-02-12T12:13:17;96252.25;;;6.04;74.64
20077;BME280;12348;42.710;23.378;2023-02-12T12:15:49;96246.16;;;5.86;75.61
20077;BME280;12348;42.710;23.378;2023-02-12T12:18:42;96245.16;;;5.33;78.11
20077;BME280;12348;42.710;23.378;2023-02-12T12:21:35;96252.72;;;5.36;79.58
20077;BME280;12348;42.710;23.378;2023-02-12T12:24:09;96261.25;;;5.15;79.47
20077;BME280;12348;42.710;23.378;2023-02-12T12:26:41;96253.38;;;5.20;79.74
20077;BME280;12348;42.710;23.378;2023-02-12T12:29:14;96264.78;;;5.27;79.85
20077;BME280;12348;42.710;23.378;2023-02-12T12:31:45;96261.41;;;5.20;83.07
20077;BME280;12348;42.710;23.378;2023-02-12T12:34:16;96264.94;;;5.44;81.85
20077;BME280;12348;42.710;23.378;2023-02-12T12:37:09;96264.75;;;5.57;79.64
20077;BME280;12348;42.710;23.378;2023-02-12T12:39:51;96255.09;;;5.56;79.70
20077;BME280;12348;42.710;23.378;2023-02-12T12:43:02;96259.22;;;5.40;79.94
20077;BME280;12348;42.710;23.378;2023-02-12T12:45:54;96259.69;;;5.37;80.38
20077;BME280;12348;42.710;23.378;2023-02-12T12:48:38;96256.78;;;5.27;80.78
20077;BME280;12348;42.710;23.378;2023-02-12T12:51:22;96266.22;;;5.11;82.92
20077;BME280;12348;42.710;23.378;2023-02-12T12:54:04;96275.72;;;5.07;83.73
20077;BME280;12348;42.710;23.378;2023-02-12T12:56:46;96267.22;;;4.98;84.14
20077;BME280;12348;42.710;23.378;2023-02-12T12:59:37;96266.09;;;4.57;85.99
20077;BME280;12348;42.710;23.378;2023-02-12T13:05:40;96279.97;;;4.96;85.02
20077;BME280;12348;42.710;23.378;2023-02-12T13:08:20;96281.84;;;4.77;85.31
20077;BME280;12348;42.710;23.378;2023-02-12T13:10:56;96280.59;;;4.80;85.31
20077;BME280;12348;42.710;23.378;2023-02-12T13:13:29;96282.09;;;4.76;85.14
20077;BME280;12348;42.710;23.378;2023-02-12T13:16:03;96284.41;;;4.72;86.05
20077;BME280;12348;42.710;23.378;2023-02-12T13:18:44;96276.00;;;4.87;85.48